createdAt,value
2022-10-01T00:06:31.351Z,59.30
2022-10-01T00:16:38.987Z,76.30
2022-10-01T00:26:47.932Z,63.60
2022-10-01T00:36:55.223Z,50.90
2022-10-01T00:47:04.912Z,49.50
2022-10-01T00:57:15.432Z,41.80
2022-10-01T01:07:23.613Z,40.60
2022-10-01T01:17:40.600Z,35.40
2022-10-01T01:27:51.659Z,35.80
2022-10-01T01:38:02.407Z,34.90
2022-10-01T01:48:13.145Z,39.40
2022-10-01T01:58:21.432Z,39.80
2022-10-01T02:08:37.121Z,42.60
2022-10-01T02:18:47.884Z,36.80
2022-10-01T02:28:56.610Z,35.00
2022-10-01T02:39:06.823Z,32.60
2022-10-01T02:49:15.413Z,27.60
2022-10-01T02:59:21.965Z,41.00
2022-10-01T03:09:29.048Z,41.70
2022-10-01T03:19:36.176Z,39.20
2022-10-01T03:29:43.597Z,32.20
2022-10-01T03:39:50.762Z,30.20
2022-10-01T03:49:57.779Z,34.60
2022-10-01T04:00:02.799Z,31.80
2022-10-01T04:10:11.534Z,41.70
2022-10-01T04:20:18.740Z,36.10
2022-10-01T04:30:27.040Z,33.80
2022-10-01T04:40:36.019Z,31.50
2022-10-01T04:50:43.502Z,35.10
2022-10-01T05:00:51.177Z,37.40
2022-10-01T05:10:59.962Z,40.30
2022-10-01T05:21:05.482Z,43.60
2022-10-01T05:31:13.632Z,32.70
2022-10-01T05:41:21.083Z,42.20
2022-10-01T05:51:29.707Z,44.40
2022-10-01T06:01:37.198Z,45.10
2022-10-01T06:11:43.577Z,38.80
2022-10-01T06:21:51.041Z,41.10
2022-10-01T06:31:58.731Z,43.70
2022-10-01T06:42:05.896Z,41.10
2022-10-01T06:52:28.703Z,47.10
2022-10-01T07:02:36.538Z,54.20
2022-10-01T07:12:44.207Z,46.50
2022-10-01T07:22:57.542Z,43.30
2022-10-01T07:33:05.022Z,42.30
2022-10-01T07:43:14.821Z,49.40
2022-10-01T07:53:25.065Z,49.00
2022-10-01T08:13:37.097Z,45.80
2022-10-01T08:23:44.496Z,52.70
2022-10-01T08:33:52.039Z,47.90
2022-10-01T08:44:01.466Z,47.70
2022-10-01T08:54:08.920Z,58.40
2022-10-01T09:04:16.411Z,56.30
2022-10-01T09:14:28.220Z,59.20
2022-10-01T09:24:37.831Z,56.90
2022-10-01T09:34:46.599Z,56.10
2022-10-01T09:44:54.144Z,59.20
2022-10-01T09:55:05.352Z,52.60
2022-10-01T10:05:18.231Z,51.60
2022-10-01T10:15:25.771Z,45.70
2022-10-01T10:25:32.893Z,43.50
2022-10-01T10:35:40.438Z,40.90
2022-10-01T10:45:48.575Z,37.00
2022-10-01T10:55:56.012Z,30.30
2022-10-01T11:06:12.787Z,24.20
2022-10-01T11:16:33.805Z,26.30
2022-10-01T11:26:46.125Z,23.00
2022-10-01T11:36:55.345Z,23.70
2022-10-01T11:47:03.438Z,22.70
2022-10-01T11:57:33.218Z,20.30
2022-10-01T12:07:43.996Z,17.30
2022-10-01T12:17:56.855Z,17.60
2022-10-01T12:28:02.342Z,21.00
2022-10-01T12:38:17.187Z,16.20
2022-10-01T12:48:21.932Z,15.60
2022-10-01T12:58:40.515Z,20.60
2022-10-01T13:08:55.595Z,27.80
2022-10-01T13:19:03.487Z,30.20
2022-10-01T13:29:17.311Z,23.10
2022-10-01T13:39:23.130Z,24.00
2022-10-01T13:49:32.873Z,25.60
2022-10-01T13:59:42.185Z,22.60
2022-10-01T14:09:53.710Z,18.60
2022-10-01T14:20:02.085Z,18.80
2022-10-01T14:30:08.885Z,29.40
2022-10-01T14:40:16.102Z,20.80
2022-10-01T14:50:24.046Z,30.60
2022-10-01T15:00:32.958Z,26.90
2022-10-01T15:10:46.723Z,31.40
2022-10-01T15:20:54.722Z,30.50
2022-10-01T15:30:58.978Z,34.20
2022-10-01T15:41:29.819Z,39.00
2022-10-01T15:51:33.767Z,29.60
2022-10-01T16:01:41.689Z,27.20
2022-10-01T16:11:53.534Z,38.40
2022-10-01T16:22:24.465Z,42.20
2022-10-01T16:32:31.852Z,50.30
2022-10-01T16:42:40.276Z,35.30
2022-10-01T16:52:47.716Z,30.10
2022-10-01T17:02:56.117Z,39.40
2022-10-01T17:13:04.481Z,40.90
2022-10-01T17:23:14.284Z,52.00
2022-10-01T17:33:22.755Z,60.40
2022-10-01T17:43:30.112Z,48.80
2022-10-01T17:53:42.543Z,52.70
2022-10-01T18:03:53.285Z,5.30
2022-10-01T18:14:01.271Z,10.10
2022-10-01T18:24:08.616Z,9.50
2022-10-01T18:34:13.883Z,20.10
2022-10-01T18:44:22.090Z,10.30
2022-10-01T18:54:44.687Z,8.10
2022-10-01T19:05:05.186Z,6.70
2022-10-01T19:15:17.739Z,8.30
2022-10-01T19:25:32.517Z,16.20
2022-10-01T19:35:37.241Z,14.90
2022-10-01T19:45:46.261Z,15.50
2022-10-01T19:55:55.923Z,7.80
2022-10-01T20:06:03.713Z,7.10
2022-10-01T20:16:10.081Z,6.60
2022-10-01T20:26:17.402Z,4.40
2022-10-01T20:36:27.875Z,6.00
2022-10-01T20:46:38.448Z,7.00
2022-10-01T20:56:57.937Z,4.10
2022-10-01T21:07:11.071Z,3.60
2022-10-01T21:17:32.522Z,4.10
2022-10-01T21:27:47.831Z,9.40
2022-10-01T21:38:06.612Z,7.10
2022-10-01T21:48:18.418Z,6.40
2022-10-01T21:58:34.594Z,6.00
2022-10-01T22:08:46.076Z,11.80
2022-10-01T22:18:53.958Z,5.60
2022-10-01T22:29:03.221Z,6.50
2022-10-01T22:39:08.569Z,9.40
2022-10-01T22:49:17.325Z,6.30
2022-10-01T22:59:22.445Z,6.70
2022-10-01T23:09:32.001Z,6.40
2022-10-01T23:19:39.101Z,6.60
2022-10-01T23:29:50.554Z,4.90
2022-10-01T23:40:04.141Z,7.90
2022-10-01T23:50:17.058Z,3.30
